Time;durP1;ratioP1;P1;durP2;ratioP2;P2;SDS_P1;SDS_P2;PMS_P1;PMS_P2;Temp;Humidity;BMP_temperature;BMP_pressure;BME280_temperature;BME280_humidity;BME280_pressure;Samples;Min_cycle;Max_cycle;Signal;HPM_P1;HPM_P2
2021/12/03 00:03:06;;;;;;;4.53;1.73;;;15.90;65.50;;;;;;10559913;28;20023;-57
2021/12/03 00:08:08;;;;;;;4.45;2.00;;;15.90;65.30;;;;;;10560188;28;20095;-57
2021/12/03 00:13:09;;;;;;;3.22;1.90;;;15.90;65.40;;;;;;10559930;28;20023;-56
2021/12/03 00:18:09;;;;;;;3.72;1.80;;;15.90;65.50;;;;;;10560428;28;20103;-57
2021/12/03 00:23:10;;;;;;;3.17;1.30;;;15.90;65.40;;;;;;10585172;28;20031;-57
2021/12/03 00:28:11;;;;;;;3.75;1.60;;;15.90;65.30;;;;;;10585384;28;20035;-55
2021/12/03 00:33:12;;;;;;;4.30;1.90;;;15.80;65.20;;;;;;10585144;28;20039;-56
2021/12/03 00:38:15;;;;;;;2.85;1.70;;;15.80;65.20;;;;;;10566773;28;20039;-56
2021/12/03 00:43:16;;;;;;;3.22;1.83;;;15.80;65.10;;;;;;10566185;28;20039;-57
2021/12/03 00:48:17;;;;;;;4.15;1.92;;;15.80;65.30;;;;;;10549478;28;20463;-57
2021/12/03 00:53:17;;;;;;;3.55;1.90;;;15.80;65.20;;;;;;10566223;28;20023;-57
2021/12/03 00:58:19;;;;;;;3.38;1.95;;;15.70;65.10;;;;;;10566190;28;20054;-57
2021/12/03 01:03:20;;;;;;;3.67;2.35;;;15.70;65.20;;;;;;10584098;28;20023;-57
2021/12/03 01:08:21;;;;;;;4.15;1.55;;;15.70;65.10;;;;;;10583806;28;20023;-57
2021/12/03 01:13:22;;;;;;;2.97;1.58;;;15.70;65.20;;;;;;10565527;28;20507;-56
2021/12/03 01:18:23;;;;;;;3.03;1.90;;;15.70;65.10;;;;;;10583297;28;20023;-57
2021/12/03 01:23:24;;;;;;;3.85;2.13;;;15.60;65.20;;;;;;10565422;28;20034;-58
2021/12/03 01:28:28;;;;;;;2.90;1.48;;;15.60;65.20;;;;;;10582667;28;20031;-57
2021/12/03 01:33:28;;;;;;;2.75;1.65;;;15.60;65.10;;;;;;10581975;28;20092;-58
2021/12/03 01:38:29;;;;;;;2.75;1.38;;;15.60;65.20;;;;;;10564385;28;20028;-58
2021/12/03 01:43:30;;;;;;;2.63;1.60;;;15.60;65.30;;;;;;10563915;28;20424;-57
2021/12/03 01:48:31;;;;;;;2.38;1.38;;;15.70;65.20;;;;;;10564069;28;20063;-55
2021/12/03 01:53:37;;;;;;;3.53;1.58;;;15.70;65.20;;;;;;10582090;28;20034;-58
2021/12/03 01:58:41;;;;;;;2.20;1.65;;;15.70;65.20;;;;;;10551230;28;20080;-57
2021/12/03 02:03:44;;;;;;;3.05;1.60;;;15.70;65.10;;;;;;10546815;28;20489;-57
2021/12/03 02:08:45;;;;;;;2.40;1.50;;;15.70;64.90;;;;;;10546340;28;20032;-57
2021/12/03 02:13:47;;;;;;;2.38;1.35;;;15.70;64.80;;;;;;10562547;28;20452;-57
2021/12/03 02:18:49;;;;;;;2.22;1.33;;;15.70;64.80;;;;;;10581045;28;20234;-56
2021/12/03 02:23:51;;;;;;;2.83;1.40;;;15.80;64.70;;;;;;10562253;28;20035;-57
2021/12/03 02:28:52;;;;;;;2.10;1.00;;;15.70;64.60;;;;;;10580080;28;20023;-56
2021/12/03 02:33:54;;;;;;;2.10;1.52;;;15.80;64.80;;;;;;10580320;28;20023;-56
2021/12/03 02:38:55;;;;;;;2.42;1.30;;;15.70;64.80;;;;;;10562299;28;20026;-58
2021/12/03 02:43:56;;;;;;;2.00;1.10;;;15.70;64.90;;;;;;10561706;28;20131;-57
2021/12/03 02:48:57;;;;;;;2.40;1.48;;;15.60;65.00;;;;;;10580004;28;20559;-58
2021/12/03 02:53:58;;;;;;;2.65;1.20;;;15.70;64.90;;;;;;10561731;28;20035;-57
2021/12/03 02:58:59;;;;;;;2.40;1.35;;;15.70;64.60;;;;;;10561418;28;20548;-58
2021/12/03 03:04:00;;;;;;;1.80;1.30;;;15.70;64.60;;;;;;10561425;28;20028;-56
2021/12/03 03:09:02;;;;;;;3.10;1.00;;;15.80;64.50;;;;;;10544276;28;20042;-56
2021/12/03 03:14:04;;;;;;;3.35;1.30;;;15.80;64.20;;;;;;10579185;28;20023;-56
2021/12/03 03:19:16;;;;;;;1.48;1.00;;;15.90;64.30;;;;;;10544318;28;20023;-56
2021/12/03 03:24:18;;;;;;;2.25;1.20;;;15.90;64.20;;;;;;10561416;28;20057;-56
2021/12/03 03:29:19;;;;;;;2.00;0.93;;;15.90;64.30;;;;;;10560759;28;20452;-58
2021/12/03 03:34:20;;;;;;;2.47;1.35;;;15.90;64.30;;;;;;10560477;28;20023;-60
2021/12/03 03:39:21;;;;;;;2.10;1.05;;;15.90;64.40;;;;;;10543458;28;20020;-57
2021/12/03 03:44:22;;;;;;;2.22;0.90;;;15.90;64.40;;;;;;10578496;28;20115;-57
2021/12/03 03:49:25;;;;;;;1.83;1.00;;;15.90;64.30;;;;;;10560550;28;20035;-57
2021/12/03 03:54:25;;;;;;;2.33;1.30;;;15.90;64.30;;;;;;10563824;28;20015;-57
2021/12/03 03:59:26;;;;;;;3.55;1.23;;;15.90;64.30;;;;;;10587233;28;20020;-57
2021/12/03 04:04:27;;;;;;;2.42;1.30;;;15.80;64.40;;;;;;10568467;28;20386;-56
2021/12/03 04:09:28;;;;;;;1.98;1.30;;;15.80;64.30;;;;;;10586607;28;20035;-57
2021/12/03 04:14:28;;;;;;;3.00;1.20;;;15.90;64.20;;;;;;10585488;28;20039;-57
2021/12/03 04:19:29;;;;;;;1.83;1.08;;;15.90;64.20;;;;;;10585335;28;20027;-58
2021/12/03 04:24:30;;;;;;;1.75;1.25;;;15.90;64.20;;;;;;10567544;28;20027;-57
2021/12/03 04:29:31;;;;;;;1.50;1.00;;;15.90;64.20;;;;;;10567335;28;20035;-57
2021/12/03 04:34:32;;;;;;;2.67;1.20;;;15.90;64.20;;;;;;10567284;28;20020;-57
2021/12/03 04:39:33;;;;;;;2.25;1.23;;;15.80;64.20;;;;;;10567052;28;20053;-55
2021/12/03 04:44:35;;;;;;;2.08;1.20;;;15.80;64.10;;;;;;10584601;28;20380;-58
2021/12/03 04:49:37;;;;;;;2.88;1.15;;;15.90;64.10;;;;;;10584988;28;20027;-58
2021/12/03 04:54:37;;;;;;;1.92;1.00;;;15.90;64.10;;;;;;10566598;28;20027;-57
2021/12/03 04:59:38;;;;;;;2.03;1.23;;;15.90;64.00;;;;;;10584414;28;20028;-57
2021/12/03 05:04:40;;;;;;;3.13;1.60;;;15.90;64.10;;;;;;10565482;28;20035;-56
2021/12/03 05:09:41;;;;;;;2.35;1.27;;;15.90;64.20;;;;;;10583949;28;20407;-57
2021/12/03 05:14:42;;;;;;;2.22;1.20;;;15.90;64.20;;;;;;10563361;28;20031;-56
2021/12/03 05:19:42;;;;;;;2.53;1.45;;;15.90;64.20;;;;;;10544885;28;20039;-55
2021/12/03 05:24:47;;;;;;;2.15;1.08;;;15.80;64.30;;;;;;10582651;28;20479;-57
2021/12/03 05:29:49;;;;;;;1.90;1.05;;;15.80;64.30;;;;;;10562189;28;20027;-57
2021/12/03 05:34:50;;;;;;;2.50;0.98;;;15.90;64.10;;;;;;10550234;28;20066;-57
2021/12/03 05:39:51;;;;;;;1.38;0.82;;;15.90;64.00;;;;;;10564715;28;20117;-56
2021/12/03 05:44:53;;;;;;;1.98;1.30;;;16.00;63.80;;;;;;10564330;28;20069;-57
2021/12/03 05:49:54;;;;;;;2.90;1.33;;;16.10;63.50;;;;;;10559188;28;20035;-56
2021/12/03 05:54:55;;;;;;;4.03;1.50;;;16.30;63.20;;;;;;10580340;28;20379;-56
2021/12/03 05:59:55;;;;;;;3.42;1.55;;;16.50;63.10;;;;;;10546650;28;20034;-57
2021/12/03 06:04:56;;;;;;;9.75;1.98;;;16.70;63.10;;;;;;10581212;28;20027;-55
2021/12/03 06:09:57;;;;;;;5.88;1.50;;;16.80;63.80;;;;;;10581702;28;20024;-56
2021/12/03 06:14:57;;;;;;;8.25;2.10;;;16.90;63.80;;;;;;10579749;28;20114;-55
2021/12/03 06:19:58;;;;;;;13.20;2.38;;;16.90;63.80;;;;;;10560750;28;20037;-56
2021/12/03 06:25:00;;;;;;;12.98;3.05;;;16.90;64.10;;;;;;10561351;28;20032;-55
2021/12/03 06:30:03;;;;;;;11.02;3.28;;;16.90;64.10;;;;;;10561343;28;20024;-53
2021/12/03 06:35:08;;;;;;;7.82;2.20;;;17.00;63.90;;;;;;10562580;28;20027;-53
2021/12/03 06:40:15;;;;;;;15.18;3.78;;;17.10;63.70;;;;;;10561575;28;20112;-55
2021/12/03 06:45:16;;;;;;;13.43;2.80;;;17.10;63.60;;;;;;10561846;28;20166;-53
2021/12/03 06:50:18;;;;;;;19.17;4.07;;;17.20;63.50;;;;;;10576766;28;20076;-56
2021/12/03 06:55:19;;;;;;;20.65;5.10;;;17.20;63.40;;;;;;10577346;28;20032;-53
2021/12/03 07:00:22;;;;;;;15.45;3.30;;;17.20;64.00;;;;;;10578373;28;20023;-54
2021/12/03 07:05:23;;;;;;;16.45;3.75;;;17.20;64.20;;;;;;10559542;28;20028;-54
2021/12/03 07:10:24;;;;;;;15.30;3.58;;;17.20;64.00;;;;;;10547259;28;20035;-49
2021/12/03 07:15:25;;;;;;;13.43;3.97;;;17.20;63.70;;;;;;10558807;28;20042;-53
2021/12/03 07:20:27;;;;;;;12.32;4.00;;;17.30;63.90;;;;;;10577014;28;20028;-51
2021/12/03 07:25:28;;;;;;;10.13;3.88;;;17.40;63.20;;;;;;10557832;28;20046;-53
2021/12/03 07:30:31;;;;;;;6.82;2.92;;;17.40;62.40;;;;;;10559328;28;20111;-51
2021/12/03 07:35:32;;;;;;;11.50;3.38;;;17.40;62.20;;;;;;10578066;28;20032;-49
2021/12/03 07:40:32;;;;;;;11.52;3.17;;;17.50;62.10;;;;;;10565267;28;20032;-52
2021/12/03 07:45:33;;;;;;;12.98;3.38;;;17.50;61.90;;;;;;10567572;28;20043;-52
2021/12/03 07:50:36;;;;;;;11.10;3.60;;;17.50;62.20;;;;;;10587046;28;20047;-52
2021/12/03 07:55:36;;;;;;;10.70;3.47;;;17.60;61.70;;;;;;10568809;28;20028;-47
2021/12/03 08:00:37;;;;;;;12.38;3.53;;;17.80;61.40;;;;;;10586763;28;20107;-49
2021/12/03 08:05:39;;;;;;;11.85;3.10;;;17.80;61.30;;;;;;10568940;28;20038;-52
2021/12/03 08:10:40;;;;;;;27.77;4.13;;;17.80;61.60;;;;;;10567251;28;20035;-52
2021/12/03 08:15:41;;;;;;;14.30;3.50;;;17.80;62.00;;;;;;10574176;28;20031;-52
2021/12/03 08:20:42;;;;;;;16.08;4.38;;;17.80;62.40;;;;;;10577511;28;20044;-50
2021/12/03 08:25:42;;;;;;;12.77;3.63;;;17.80;62.50;;;;;;10568221;28;20046;-52
2021/12/03 08:30:43;;;;;;;16.38;3.30;;;17.80;63.00;;;;;;10565714;28;20081;-53
2021/12/03 08:35:44;;;;;;;17.60;4.00;;;17.80;63.40;;;;;;10565941;28;20035;-54
2021/12/03 08:40:45;;;;;;;12.43;2.75;;;17.80;63.70;;;;;;10564251;28;20031;-53
2021/12/03 08:45:52;;;;;;;11.30;2.95;;;18.00;62.70;;;;;;10567249;28;20044;-53
2021/12/03 08:51:25;;;;;;;15.85;4.28;;;17.90;62.20;;;;;;10571778;28;20024;-54
2021/12/03 08:56:13;;;;;;;15.30;3.55;;;17.80;62.00;;;;;;10583415;28;20036;-52
2021/12/03 09:01:14;;;;;;;12.95;4.05;;;17.80;62.00;;;;;;10581048;28;20053;-52
2021/12/03 09:06:15;;;;;;;12.15;3.00;;;17.80;61.70;;;;;;10584671;28;20032;-53
2021/12/03 09:11:18;;;;;;;13.35;2.88;;;17.80;61.60;;;;;;10583824;28;20035;-51
2021/12/03 09:16:20;;;;;;;11.40;3.13;;;17.80;61.70;;;;;;10565709;28;20035;-52
2021/12/03 09:21:24;;;;;;;8.38;2.63;;;17.80;61.50;;;;;;10565120;28;20560;-52
2021/12/03 09:26:26;;;;;;;10.73;3.13;;;17.80;61.50;;;;;;10565339;28;20031;-53
2021/12/03 09:31:28;;;;;;;15.45;3.20;;;17.80;61.30;;;;;;10564125;28;20114;-52
2021/12/03 09:36:28;;;;;;;7.15;2.80;;;17.90;61.30;;;;;;10563676;28;20032;-50
2021/12/03 09:41:29;;;;;;;9.63;3.42;;;17.90;61.20;;;;;;10582715;28;20036;-53
2021/12/03 09:46:31;;;;;;;6.18;2.20;;;17.90;61.30;;;;;;10563997;28;20051;-53
2021/12/03 09:51:45;;;;;;;8.98;2.80;;;17.90;61.20;;;;;;10556792;28;20036;-52
2021/12/03 09:56:47;;;;;;;9.98;2.58;;;17.90;61.10;;;;;;10559071;28;20055;-51
2021/12/03 10:49:18;;;;;;;11.00;2.80;;;18.10;61.80;;;;;;10579566;28;20036;-54
2021/12/03 13:08:25;;;;;;;7.43;1.73;;;18.40;61.80;;;;;;10568134;28;20036;-55
2021/12/03 14:01:20;;;;;;;21.37;2.37;;;18.50;63.10;;;;;;10575275;28;20039;-55
2021/12/03 14:59:14;;;;;;;23.30;3.10;;;18.70;64.20;;;;;;10560566;28;20036;-54
2021/12/03 15:09:43;;;;;;;15.00;3.60;;;18.80;64.40;;;;;;10568671;28;20072;-53
2021/12/03 15:25:14;;;;;;;19.52;2.65;;;18.70;63.90;;;;;;10559352;28;20035;-53
2021/12/03 15:35:35;;;;;;;22.73;3.15;;;18.70;64.10;;;;;;10559848;28;20031;-56
2021/12/03 16:06:53;;;;;;;24.83;3.53;;;18.60;64.30;;;;;;10584968;28;20043;-56
2021/12/03 16:53:33;;;;;;;18.75;3.78;;;18.50;63.40;;;;;;10577019;28;20391;-59
2021/12/03 16:58:35;;;;;;;13.70;2.97;;;18.50;62.70;;;;;;10563729;28;20457;-56
2021/12/03 17:03:54;;;;;;;13.77;3.40;;;18.60;65.30;;;;;;10547732;28;20039;-57
2021/12/03 17:09:15;;;;;;;13.73;2.72;;;18.80;65.00;;;;;;10566665;28;20069;-56
2021/12/03 17:14:49;;;;;;;12.15;2.97;;;18.80;64.90;;;;;;10582333;28;20020;-58
2021/12/03 17:20:45;;;;;;;10.68;2.17;;;18.90;64.70;;;;;;10569078;28;20019;-56
2021/12/03 17:46:57;;;;;;;16.08;2.97;;;18.80;64.50;;;;;;10563855;28;20039;-54
2021/12/03 17:57:24;;;;;;;14.73;2.80;;;18.80;64.60;;;;;;10580766;28;20032;-55
2021/12/03 18:02:44;;;;;;;17.23;3.70;;;18.80;64.40;;;;;;10549345;28;20028;-56
2021/12/03 18:13:13;;;;;;;10.88;2.92;;;18.80;64.20;;;;;;10557645;28;20031;-55
2021/12/03 18:18:39;;;;;;;10.80;2.42;;;18.80;64.10;;;;;;10564159;28;20036;-56
2021/12/03 18:45:20;;;;;;;7.72;1.88;;;18.60;64.50;;;;;;10565602;28;20467;-52
2021/12/03 18:55:45;;;;;;;8.60;2.13;;;18.70;64.00;;;;;;10563350;27;20032;-55
2021/12/03 19:00:46;;;;;;;12.85;1.80;;;18.70;63.60;;;;;;10560580;27;20039;-56
2021/12/03 19:11:21;;;;;;;5.65;1.75;;;18.70;63.50;;;;;;10564854;28;20035;-56
2021/12/03 19:16:24;;;;;;;8.18;1.20;;;18.80;63.50;;;;;;10550168;28;20360;-56
2021/12/03 19:21:28;;;;;;;8.55;1.60;;;18.70;63.50;;;;;;10561799;28;20148;-55
2021/12/03 19:26:32;;;;;;;5.25;1.50;;;18.70;63.50;;;;;;10561215;28;20444;-56
2021/12/03 19:31:33;;;;;;;3.35;1.30;;;18.70;63.50;;;;;;10560186;28;20027;-57
2021/12/03 19:36:39;;;;;;;6.43;1.50;;;18.70;63.50;;;;;;10549108;28;20019;-56
2021/12/03 19:41:49;;;;;;;4.32;1.50;;;18.70;63.50;;;;;;10562014;28;20034;-56
2021/12/03 19:46:51;;;;;;;6.13;1.48;;;18.70;63.50;;;;;;10562195;28;20119;-56
2021/12/03 19:51:56;;;;;;;7.70;1.30;;;18.70;63.50;;;;;;10561135;28;20096;-57
2021/12/03 19:56:57;;;;;;;6.28;1.30;;;18.80;63.50;;;;;;10575230;28;20081;-56
2021/12/03 20:01:59;;;;;;;5.85;1.77;;;18.70;63.50;;;;;;10536189;28;20540;-56
2021/12/03 20:07:01;;;;;;;4.10;1.75;;;18.70;63.40;;;;;;10553127;28;20448;-57
2021/12/03 20:12:10;;;;;;;6.10;1.70;;;18.70;63.50;;;;;;10532964;28;20027;-61
2021/12/03 20:17:28;;;;;;;4.55;1.60;;;18.60;63.80;;;;;;10574302;28;20023;-57
2021/12/03 20:27:45;;;;;;;4.70;0.90;;;18.30;64.50;;;;;;10572977;28;20032;-57
2021/12/03 20:33:03;;;;;;;7.15;1.13;;;18.10;64.80;;;;;;10559171;28;20042;-56
2021/12/03 20:38:04;;;;;;;7.13;1.60;;;18.00;65.40;;;;;;10577525;28;20063;-55
2021/12/03 21:09:07;;;;;;;11.00;1.47;;;17.40;67.10;;;;;;10568072;28;20040;-56
2021/12/03 21:14:14;;;;;;;5.15;0.93;;;17.30;67.20;;;;;;10568892;28;20019;-56
2021/12/03 21:24:37;;;;;;;5.38;1.08;;;17.10;67.50;;;;;;10566537;28;20063;-58
2021/12/03 21:45:37;;;;;;;3.25;0.90;;;16.90;67.60;;;;;;10566875;28;20439;-57
2021/12/03 21:50:38;;;;;;;1.75;0.60;;;16.90;67.70;;;;;;10561936;28;20028;-57
2021/12/03 21:55:46;;;;;;;3.60;1.00;;;16.90;67.80;;;;;;10563398;28;20047;-57
2021/12/03 22:00:48;;;;;;;2.67;0.90;;;16.80;67.70;;;;;;10563663;28;20536;-57
2021/12/03 22:05:51;;;;;;;1.88;0.73;;;16.80;67.80;;;;;;10562767;28;20032;-57
2021/12/03 22:10:51;;;;;;;3.00;1.00;;;16.70;67.90;;;;;;10545652;28;20471;-55
2021/12/03 22:15:55;;;;;;;6.07;0.80;;;16.70;67.90;;;;;;10553505;28;20043;-56
2021/12/03 22:21:05;;;;;;;2.08;0.60;;;16.70;68.10;;;;;;10545441;28;20063;-56
2021/12/03 22:26:07;;;;;;;2.20;0.93;;;16.60;68.10;;;;;;10562665;28;20027;-56
2021/12/03 22:31:09;;;;;;;3.83;1.00;;;16.60;68.10;;;;;;10561555;28;20430;-55
2021/12/03 22:36:10;;;;;;;2.10;0.75;;;16.60;68.20;;;;;;10561498;28;20035;-57
2021/12/03 22:41:12;;;;;;;1.58;0.60;;;16.50;68.10;;;;;;10579990;28;20414;-56
2021/12/03 22:56:16;;;;;;;2.20;0.60;;;16.40;68.30;;;;;;10560525;28;20088;-57
2021/12/03 23:01:18;;;;;;;4.13;1.10;;;16.40;68.30;;;;;;10559324;28;20372;-57
2021/12/03 23:06:20;;;;;;;1.40;0.80;;;16.40;68.30;;;;;;10578550;28;20476;-57
2021/12/03 23:11:20;;;;;;;1.13;0.57;;;16.40;68.30;;;;;;10546550;28;20038;-56
2021/12/03 23:16:21;;;;;;;2.38;0.80;;;16.30;68.30;;;;;;10568550;28;20126;-57
2021/12/03 23:21:22;;;;;;;2.05;1.08;;;16.30;68.30;;;;;;10578048;28;20027;-56
2021/12/03 23:26:23;;;;;;;2.40;0.68;;;16.30;68.40;;;;;;10578248;28;20034;-56
2021/12/03 23:31:24;;;;;;;1.33;0.52;;;16.30;68.50;;;;;;10559925;28;20023;-57
2021/12/03 23:36:25;;;;;;;1.50;0.52;;;16.20;68.40;;;;;;10559599;28;20106;-57
2021/12/03 23:41:26;;;;;;;2.90;0.60;;;16.20;68.40;;;;;;10577620;28;20039;-56
2021/12/03 23:46:28;;;;;;;1.05;0.77;;;16.10;68.30;;;;;;10534371;28;20520;-57
2021/12/03 23:51:30;;;;;;;1.50;0.45;;;16.20;68.40;;;;;;10534235;28;20024;-55
2021/12/03 23:56:30;;;;;;;1.73;1.05;;;16.10;68.40;;;;;;10534071;28;20024;-57
